Time;durP1;ratioP1;P1;durP2;ratioP2;P2;SDS_P1;SDS_P2;PMS_P1;PMS_P2;Temp;Humidity;BMP_temperature;BMP_pressure;BME280_temperature;BME280_humidity;BME280_pressure;Samples;Min_cycle;Max_cycle;Signal;HPM_P1;HPM_P2
2022/04/23 00:02:04;;;;;;;;;;;13.50;99.90;;;;;;5072110;28;19962;-70
2022/04/23 00:04:30;;;;;;;;;;;13.50;99.90;;;;;;5071814;28;19908;-70
2022/04/23 00:06:56;;;;;;;;;;;13.50;99.90;;;;;;5071699;28;20206;-69
2022/04/23 00:09:22;;;;;;;;;;;13.50;99.90;;;;;;5071645;28;20028;-71
2022/04/23 00:11:48;;;;;;;;;;;13.50;99.90;;;;;;5071555;28;19974;-70
2022/04/23 00:14:14;;;;;;;;;;;13.60;99.90;;;;;;5071975;28;19909;-70
2022/04/23 00:16:40;;;;;;;;;;;13.60;99.90;;;;;;5071607;28;19912;-71
2022/04/23 00:19:06;;;;;;;;;;;13.60;99.90;;;;;;5070812;28;19970;-69
2022/04/23 00:21:43;;;;;;;;;;;13.60;99.90;;;;;;5071465;28;19908;-65
2022/04/23 00:24:43;;;;;;;;;;;13.50;99.90;;;;;;5088941;28;19920;-64
2022/04/23 00:27:09;;;;;;;;;;;13.40;99.90;;;;;;5091471;28;19953;-70
2022/04/23 00:29:36;;;;;;;;;;;13.40;99.90;;;;;;5091577;28;19994;-71
2022/04/23 00:32:02;;;;;;;;;;;13.40;99.90;;;;;;5091545;28;19908;-67
2022/04/23 00:34:28;;;;;;;;;;;13.40;99.90;;;;;;5091674;28;20438;-71
2022/04/23 00:36:54;;;;;;;;;;;13.40;99.90;;;;;;5091438;28;19968;-70
2022/04/23 00:39:20;;;;;;;;;;;13.40;99.90;;;;;;5091723;28;19916;-71
2022/04/23 00:41:46;;;;;;;;;;;13.50;99.90;;;;;;5091177;28;20399;-71
2022/04/23 00:44:13;;;;;;;;;;;13.50;99.90;;;;;;5091695;28;20269;-71
2022/04/23 00:46:39;;;;;;;;;;;13.60;99.90;;;;;;5091443;28;20014;-70
2022/04/23 00:49:06;;;;;;;;;;;13.60;99.90;;;;;;5089858;28;20351;-71
2022/04/23 00:51:35;;;;;;;;;;;13.60;99.90;;;;;;5091490;28;20002;-71
2022/04/23 00:54:04;;;;;;;;;;;13.60;99.90;;;;;;5091586;28;19924;-71
2022/04/23 00:56:31;;;;;;;;;;;13.60;99.90;;;;;;5091731;28;19908;-71
2022/04/23 00:59:21;;;;;;;;;;;13.60;99.90;;;;;;5091113;28;20381;-70
2022/04/23 01:01:49;;;;;;;;;;;13.50;99.90;;;;;;5091463;28;19908;-72
2022/04/23 01:04:16;;;;;;;;;;;13.50;99.90;;;;;;5091163;28;20015;-70
2022/04/23 01:06:43;;;;;;;;;;;13.50;99.90;;;;;;5090992;28;20007;-70
2022/04/23 01:09:09;;;;;;;;;;;13.50;99.90;;;;;;5091067;28;20339;-70
2022/04/23 01:11:35;;;;;;;;;;;13.50;99.90;;;;;;5091136;28;20391;-71
2022/04/23 01:14:01;;;;;;;;;;;13.60;99.90;;;;;;5091516;28;19919;-71
2022/04/23 01:16:36;;;;;;;;;;;13.60;99.90;;;;;;5090887;28;19908;-70
2022/04/23 01:19:02;;;;;;;;;;;13.60;99.90;;;;;;5091283;28;20397;-71
2022/04/23 01:21:28;;;;;;;;;;;13.60;99.90;;;;;;5091083;28;19916;-70
2022/04/23 01:23:56;;;;;;;;;;;13.50;99.90;;;;;;5090782;28;19942;-70
2022/04/23 01:26:53;;;;;;;;;;;13.50;99.90;;;;;;5090966;28;19909;-71
2022/04/23 01:29:19;;;;;;;;;;;13.40;99.90;;;;;;5091013;28;19908;-69
2022/04/23 01:31:44;;;;;;;;;;;13.50;99.90;;;;;;5093336;28;19915;-70
2022/04/23 01:34:10;;;;;;;;;;;13.50;99.90;;;;;;5094849;28;19912;-69
2022/04/23 01:36:37;;;;;;;;;;;13.60;99.90;;;;;;5095190;28;19908;-70
2022/04/23 01:39:02;;;;;;;;;;;13.60;99.90;;;;;;5093772;28;19912;-70
2022/04/23 01:41:28;;;;;;;;;;;13.60;99.90;;;;;;5094437;28;19943;-71
2022/04/23 01:43:54;;;;;;;;;;;13.60;99.90;;;;;;5095082;28;19916;-71
2022/04/23 01:46:50;;;;;;;;;;;13.60;99.90;;;;;;5094715;28;19908;-71
2022/04/23 01:49:16;;;;;;;;;;;13.50;99.90;;;;;;5094976;28;19949;-70
2022/04/23 01:51:42;;;;;;;;;;;13.50;99.90;;;;;;5094772;28;19908;-69
2022/04/23 01:54:09;;;;;;;;;;;13.50;99.90;;;;;;5093567;28;19908;-71
2022/04/23 01:56:35;;;;;;;;;;;13.60;99.90;;;;;;5093025;28;20011;-70
2022/04/23 01:59:00;;;;;;;;;;;13.60;99.90;;;;;;5094719;28;19912;-69
2022/04/23 02:01:51;;;;;;;;;;;13.60;99.90;;;;;;5093979;28;20229;-71
2022/04/23 02:04:17;;;;;;;;;;;13.60;99.90;;;;;;5093834;28;20007;-70
2022/04/23 02:06:52;;;;;;;;;;;13.60;99.90;;;;;;5093554;28;20375;-70
2022/04/23 02:09:30;;;;;;;;;;;13.60;99.90;;;;;;5093624;28;20347;-71
2022/04/23 02:11:56;;;;;;;;;;;13.50;99.90;;;;;;5094465;28;20331;-69
2022/04/23 02:14:22;;;;;;;;;;;13.40;99.90;;;;;;5094774;28;19919;-70
2022/04/23 02:16:49;;;;;;;;;;;13.40;99.90;;;;;;5094024;28;19908;-70
2022/04/23 02:19:15;;;;;;;;;;;13.40;99.90;;;;;;5092441;28;19985;-71
2022/04/23 02:21:40;;;;;;;;;;;13.40;99.90;;;;;;5094018;28;20293;-68
2022/04/23 02:24:06;;;;;;;;;;;13.40;99.90;;;;;;5093886;28;20015;-71
2022/04/23 02:26:32;;;;;;;;;;;13.40;99.90;;;;;;5093891;28;20052;-71
2022/04/23 02:28:58;;;;;;;;;;;13.40;99.90;;;;;;5093869;28;20071;-70
2022/04/23 02:31:24;;;;;;;;;;;13.40;99.90;;;;;;5094045;28;19951;-71
2022/04/23 02:33:50;;;;;;;;;;;13.50;99.90;;;;;;5094027;28;20015;-70
2022/04/23 02:36:16;;;;;;;;;;;13.40;99.90;;;;;;5094595;28;20285;-70
2022/04/23 02:38:42;;;;;;;;;;;13.40;99.90;;;;;;5093927;28;19961;-70
2022/04/23 02:41:08;;;;;;;;;;;13.40;99.90;;;;;;5093353;28;19927;-71
2022/04/23 02:43:45;;;;;;;;;;;13.30;99.90;;;;;;5091930;28;20271;-70
2022/04/23 02:46:45;;;;;;;;;;;13.30;99.90;;;;;;5092560;28;19912;-71
2022/04/23 02:49:11;;;;;;;;;;;13.30;99.90;;;;;;5092698;28;19932;-69
2022/04/23 02:51:37;;;;;;;;;;;13.40;99.90;;;;;;5092519;28;19969;-69
2022/04/23 02:54:04;;;;;;;;;;;13.60;99.90;;;;;;5093252;28;19979;-70
2022/04/23 02:56:33;;;;;;;;;;;13.60;99.90;;;;;;5093763;28;20010;-70
2022/04/23 02:58:59;;;;;;;;;;;13.60;99.90;;;;;;5093625;28;19931;-70
2022/04/23 03:01:26;;;;;;;;;;;13.50;99.90;;;;;;5093838;28;19908;-70
2022/04/23 03:03:54;;;;;;;;;;;13.50;99.90;;;;;;5093621;28;19961;-71
2022/04/23 03:06:39;;;;;;;;;;;13.50;99.90;;;;;;5093653;28;20002;-71
2022/04/23 03:09:05;;;;;;;;;;;13.50;99.90;;;;;;5094526;28;19995;-69
2022/04/23 03:11:31;;;;;;;;;;;13.50;99.90;;;;;;5094259;28;19966;-70
2022/04/23 03:13:58;;;;;;;;;;;13.50;99.90;;;;;;5093845;28;19908;-69
2022/04/23 03:16:26;;;;;;;;;;;13.50;99.90;;;;;;5094027;28;19915;-70
2022/04/23 03:18:52;;;;;;;;;;;13.50;99.90;;;;;;5093916;28;19908;-70
2022/04/23 03:21:18;;;;;;;;;;;13.50;99.90;;;;;;5093762;28;19999;-69
2022/04/23 03:23:44;;;;;;;;;;;13.50;99.90;;;;;;5094415;28;19923;-69
2022/04/23 03:26:10;;;;;;;;;;;13.50;99.90;;;;;;5093490;28;19908;-71
2022/04/23 03:28:36;;;;;;;;;;;13.40;99.90;;;;;;5095309;28;19993;-70
2022/04/23 03:31:02;;;;;;;;;;;13.40;99.90;;;;;;5094702;28;19915;-71
2022/04/23 03:33:28;;;;;;;;;;;13.30;99.90;;;;;;5094129;28;20374;-70
2022/04/23 03:35:54;;;;;;;;;;;13.30;99.90;;;;;;5094835;28;19908;-70
2022/04/23 03:38:20;;;;;;;;;;;13.30;99.90;;;;;;5094294;28;19915;-71
2022/04/23 03:40:48;;;;;;;;;;;13.30;99.90;;;;;;5093908;28;19938;-70
2022/04/23 03:43:15;;;;;;;;;;;13.30;99.90;;;;;;5094181;28;19971;-71
2022/04/23 03:45:41;;;;;;;;;;;13.30;99.90;;;;;;5094607;28;19930;-70
2022/04/23 03:48:06;;;;;;;;;;;13.30;99.90;;;;;;5093987;28;20338;-70
2022/04/23 03:50:33;;;;;;;;;;;13.30;99.90;;;;;;5094044;28;19909;-70
2022/04/23 03:52:58;;;;;;;;;;;13.20;99.90;;;;;;5087812;28;20018;-69
2022/04/23 03:55:25;;;;;;;;;;;13.20;99.90;;;;;;5086036;28;19947;-69
2022/04/23 03:57:53;;;;;;;;;;;13.20;99.90;;;;;;5077431;28;19913;-69
2022/04/23 04:00:20;;;;;;;;;;;13.20;99.90;;;;;;5073666;28;19956;-70
2022/04/23 04:02:46;;;;;;;;;;;13.20;99.90;;;;;;5073243;28;19982;-69
2022/04/23 04:05:12;;;;;;;;;;;13.20;99.90;;;;;;5073887;28;19915;-70
2022/04/23 04:07:42;;;;;;;;;;;13.10;99.90;;;;;;5073369;28;19995;-70
2022/04/23 04:10:09;;;;;;;;;;;13.20;99.90;;;;;;5073428;28;19943;-70
2022/04/23 04:12:34;;;;;;;;;;;13.20;99.90;;;;;;5073240;28;19908;-69
2022/04/23 04:15:00;;;;;;;;;;;13.20;99.90;;;;;;5073365;28;19924;-70
2022/04/23 04:17:26;;;;;;;;;;;13.30;99.90;;;;;;5073509;28;19908;-70
2022/04/23 04:19:53;;;;;;;;;;;13.30;99.90;;;;;;5074048;28;19908;-71
2022/04/23 04:22:21;;;;;;;;;;;13.30;99.90;;;;;;5093938;28;19912;-70
2022/04/23 04:24:47;;;;;;;;;;;13.30;99.90;;;;;;5094276;28;19913;-70
2022/04/23 04:27:13;;;;;;;;;;;13.30;99.90;;;;;;5094811;28;20470;-69
2022/04/23 04:29:38;;;;;;;;;;;13.30;99.90;;;;;;5094460;28;19947;-70
2022/04/23 04:32:07;;;;;;;;;;;13.30;99.90;;;;;;5094643;28;19912;-70
2022/04/23 04:34:33;;;;;;;;;;;13.30;99.90;;;;;;5094018;28;19912;-70
2022/04/23 04:37:04;;;;;;;;;;;13.20;99.90;;;;;;5094026;28;19960;-70
2022/04/23 04:39:36;;;;;;;;;;;13.20;99.90;;;;;;5094570;28;19908;-70
2022/04/23 04:42:03;;;;;;;;;;;13.20;99.90;;;;;;5081706;28;20269;-69
2022/04/23 04:44:28;;;;;;;;;;;13.30;99.90;;;;;;5074168;28;19919;-69
2022/04/23 04:46:54;;;;;;;;;;;13.40;99.90;;;;;;5073921;28;19924;-70
2022/04/23 04:49:22;;;;;;;;;;;13.40;99.90;;;;;;5074198;28;19908;-70
2022/04/23 04:51:50;;;;;;;;;;;13.50;99.90;;;;;;5073640;28;19909;-70
2022/04/23 04:54:18;;;;;;;;;;;13.60;99.90;;;;;;5073507;28;20258;-70
2022/04/23 04:56:44;;;;;;;;;;;13.70;99.90;;;;;;5074066;28;20306;-70
2022/04/23 04:59:22;;;;;;;;;;;13.70;99.90;;;;;;5073352;28;19991;-70
2022/04/23 05:01:49;;;;;;;;;;;13.80;99.90;;;;;;5073985;28;19908;-69
2022/04/23 05:04:14;;;;;;;;;;;13.90;99.90;;;;;;5073776;28;19912;-69
2022/04/23 05:06:40;;;;;;;;;;;14.00;99.90;;;;;;5072948;28;20267;-70
2022/04/23 05:09:06;;;;;;;;;;;14.00;99.90;;;;;;5073419;28;19994;-71
2022/04/23 05:11:32;;;;;;;;;;;14.60;99.90;;;;;;5072231;28;20267;-69
2022/04/23 05:13:58;;;;;;;;;;;16.10;99.90;;;;;;5073938;28;19908;-69
2022/04/23 05:16:23;;;;;;;;;;;18.10;99.90;;;;;;5073608;28;19909;-69
2022/04/23 05:18:49;;;;;;;;;;;20.20;99.90;;;;;;5073607;28;19908;-70
2022/04/23 05:21:15;;;;;;;;;;;21.80;99.90;;;;;;5071938;28;19913;-69
2022/04/23 05:23:41;;;;;;;;;;;23.40;99.60;;;;;;5072767;28;19920;-71
2022/04/23 05:26:09;;;;;;;;;;;25.00;96.40;;;;;;5072624;28;20361;-70
2022/04/23 05:28:43;;;;;;;;;;;26.50;93.90;;;;;;5073245;28;19943;-69
2022/04/23 05:31:09;;;;;;;;;;;27.90;91.40;;;;;;5072882;28;19916;-72
2022/04/23 05:33:35;;;;;;;;;;;29.00;88.50;;;;;;5082284;28;19912;-70
2022/04/23 05:36:02;;;;;;;;;;;30.20;83.90;;;;;;5093175;28;19920;-71
2022/04/23 05:38:27;;;;;;;;;;;31.10;79.80;;;;;;5092623;28;19908;-70
2022/04/23 05:40:53;;;;;;;;;;;32.00;76.70;;;;;;5092421;28;20390;-70
2022/04/23 05:43:20;;;;;;;;;;;32.70;74.40;;;;;;5092632;28;20233;-70
2022/04/23 05:45:45;;;;;;;;;;;33.30;72.10;;;;;;5092469;28;19908;-69
2022/04/23 05:48:11;;;;;;;;;;;33.60;70.80;;;;;;5093036;28;19981;-70
2022/04/23 05:50:38;;;;;;;;;;;33.90;69.50;;;;;;5091676;28;19951;-70
2022/04/23 05:53:22;;;;;;;;;;;34.30;67.40;;;;;;5091809;28;19908;-71
2022/04/23 05:55:51;;;;;;;;;;;34.70;66.30;;;;;;5091106;28;20320;-70
2022/04/23 05:58:17;;;;;;;;;;;34.80;64.50;;;;;;5083857;28;19928;-69
2022/04/23 06:00:43;;;;;;;;;;;35.20;64.50;;;;;;5085624;28;19914;-70
2022/04/23 06:03:09;;;;;;;;;;;35.50;63.40;;;;;;5089736;28;19916;-70
2022/04/23 06:05:34;;;;;;;;;;;35.80;62.70;;;;;;5091593;28;19940;-72
2022/04/23 06:08:00;;;;;;;;;;;36.20;61.40;;;;;;5091533;28;19980;-70
2022/04/23 06:10:27;;;;;;;;;;;36.50;60.70;;;;;;5090602;28;19908;-67
2022/04/23 06:12:52;;;;;;;;;;;36.80;59.90;;;;;;5071343;28;19908;-71
2022/04/23 06:15:21;;;;;;;;;;;37.10;59.00;;;;;;5071629;28;20246;-72
2022/04/23 06:17:47;;;;;;;;;;;37.40;58.10;;;;;;5073613;28;20372;-71
2022/04/23 06:20:13;;;;;;;;;;;37.50;57.90;;;;;;5076144;28;19909;-71
2022/04/23 06:22:39;;;;;;;;;;;37.50;56.70;;;;;;5076216;28;19912;-72
2022/04/23 06:25:06;;;;;;;;;;;37.50;56.90;;;;;;5075872;28;19908;-71
2022/04/23 06:27:32;;;;;;;;;;;36.90;58.40;;;;;;5075749;28;20017;-70
2022/04/23 06:29:58;;;;;;;;;;;37.20;57.00;;;;;;5075996;28;19952;-71
2022/04/23 06:32:51;;;;;;;;;;;36.70;57.30;;;;;;5075951;28;19908;-71
2022/04/23 06:35:17;;;;;;;;;;;36.80;57.00;;;;;;5076163;28;20364;-69
2022/04/23 06:37:44;;;;;;;;;;;37.00;55.80;;;;;;5082631;28;20054;-68
2022/04/23 06:40:13;;;;;;;;;;;34.80;58.20;;;;;;5075420;28;19916;-70
2022/04/23 06:42:39;;;;;;;;;;;34.00;60.60;;;;;;5076099;28;20410;-71
2022/04/23 06:45:06;;;;;;;;;;;34.20;59.70;;;;;;5089508;28;19995;-69
2022/04/23 06:47:32;;;;;;;;;;;34.00;59.90;;;;;;5094927;28;19912;-70
2022/04/23 06:50:22;;;;;;;;;;;33.70;60.90;;;;;;5095721;28;19908;-70
2022/04/23 06:52:48;;;;;;;;;;;31.90;62.40;;;;;;5095622;28;20276;-71
2022/04/23 06:55:13;;;;;;;;;;;31.60;64.60;;;;;;5093840;28;20359;-71
2022/04/23 06:57:45;;;;;;;;;;;31.20;65.60;;;;;;5075249;28;19916;-71
2022/04/23 07:00:12;;;;;;;;;;;31.80;63.40;;;;;;5075274;28;19973;-71
2022/04/23 07:02:38;;;;;;;;;;;32.30;62.00;;;;;;5075153;28;19923;-71
2022/04/23 07:05:04;;;;;;;;;;;31.50;64.60;;;;;;5075386;28;19912;-71
2022/04/23 07:07:29;;;;;;;;;;;32.70;63.80;;;;;;5086638;28;19920;-70
2022/04/23 07:09:55;;;;;;;;;;;34.30;61.30;;;;;;5088135;28;19909;-71
2022/04/23 07:12:21;;;;;;;;;;;35.10;58.40;;;;;;5095524;28;19969;-71
2022/04/23 07:14:47;;;;;;;;;;;33.70;60.20;;;;;;5095174;28;19908;-72
2022/04/23 07:17:13;;;;;;;;;;;34.30;59.60;;;;;;5095407;28;20390;-70
2022/04/23 07:19:39;;;;;;;;;;;34.20;60.60;;;;;;5094904;28;19908;-72
2022/04/23 07:22:05;;;;;;;;;;;34.00;60.80;;;;;;5095215;28;19908;-70
2022/04/23 07:24:31;;;;;;;;;;;31.00;63.60;;;;;;5094992;28;20356;-71
2022/04/23 07:26:59;;;;;;;;;;;29.90;67.60;;;;;;5094665;28;19909;-69
2022/04/23 07:29:25;;;;;;;;;;;28.90;69.20;;;;;;5094550;28;20382;-71
2022/04/23 07:31:51;;;;;;;;;;;28.20;69.90;;;;;;5094722;28;20327;-70
2022/04/23 07:39:51;;;;;;;;;;;27.20;72.60;;;;;;5094778;28;19954;-72
2022/04/23 07:42:17;;;;;;;;;;;27.00;73.20;;;;;;5094039;28;20010;-72
2022/04/23 07:44:42;;;;;;;;;;;26.70;75.10;;;;;;5078058;28;19943;-71
2022/04/23 07:47:08;;;;;;;;;;;26.10;74.90;;;;;;5073782;28;20214;-71
2022/04/23 07:49:34;;;;;;;;;;;25.60;77.80;;;;;;5071530;28;20376;-70
2022/04/23 07:52:00;;;;;;;;;;;25.30;80.60;;;;;;5072766;28;19913;-69
2022/04/23 07:54:26;;;;;;;;;;;25.20;81.80;;;;;;5072156;28;19909;-71
2022/04/23 07:56:52;;;;;;;;;;;24.90;82.30;;;;;;5072820;28;20320;-70
2022/04/23 07:59:17;;;;;;;;;;;24.50;84.20;;;;;;5072593;28;19909;-70
2022/04/23 08:01:43;;;;;;;;;;;24.60;84.20;;;;;;5072766;28;19909;-72
2022/04/23 08:04:09;;;;;;;;;;;24.90;84.30;;;;;;5072213;28;19923;-72
2022/04/23 08:06:41;;;;;;;;;;;25.00;83.20;;;;;;5072480;28;19909;-72
2022/04/23 08:09:13;;;;;;;;;;;25.10;82.40;;;;;;5070409;28;19908;-71
2022/04/23 08:11:39;;;;;;;;;;;25.10;84.50;;;;;;5072301;28;19908;-72
2022/04/23 08:14:05;;;;;;;;;;;24.70;85.70;;;;;;5071900;28;19969;-71
2022/04/23 08:16:30;;;;;;;;;;;24.70;86.40;;;;;;5070892;28;19908;-70
2022/04/23 08:18:56;;;;;;;;;;;24.60;87.80;;;;;;5073763;28;19951;-71
2022/04/23 08:21:22;;;;;;;;;;;24.80;87.80;;;;;;5073655;28;20391;-72
2022/04/23 08:23:48;;;;;;;;;;;24.80;86.90;;;;;;5073160;28;19916;-72
2022/04/23 08:26:14;;;;;;;;;;;24.30;88.50;;;;;;5073182;28;20389;-73
2022/04/23 08:31:24;;;;;;;;;;;23.50;91.20;;;;;;5073262;28;19915;-72
2022/04/23 08:33:59;;;;;;;;;;;23.40;91.60;;;;;;5072971;28;19915;-71
2022/04/23 08:36:29;;;;;;;;;;;23.40;91.30;;;;;;5073682;28;19916;-73
2022/04/23 08:38:58;;;;;;;;;;;23.30;92.60;;;;;;5072918;28;19909;-73
2022/04/23 08:41:44;;;;;;;;;;;23.50;91.90;;;;;;5072235;28;19920;-73
2022/04/23 08:44:10;;;;;;;;;;;23.60;91.70;;;;;;5073483;28;20082;-74
2022/04/23 08:46:37;;;;;;;;;;;23.70;92.20;;;;;;5073245;28;20396;-73
2022/04/23 08:49:08;;;;;;;;;;;23.70;91.80;;;;;;5072967;28;19920;-71
2022/04/23 08:51:34;;;;;;;;;;;23.10;92.60;;;;;;5072675;28;19908;-72
2022/04/23 08:54:04;;;;;;;;;;;23.00;93.00;;;;;;5072787;28;19940;-72
2022/04/23 08:56:30;;;;;;;;;;;22.90;94.00;;;;;;5071280;28;19977;-73
2022/04/23 08:58:56;;;;;;;;;;;23.10;93.70;;;;;;5072863;28;20336;-72
2022/04/23 09:01:50;;;;;;;;;;;23.20;93.50;;;;;;5072575;28;19955;-73
2022/04/23 09:04:16;;;;;;;;;;;22.90;94.10;;;;;;5073024;28;19916;-71
2022/04/23 09:06:43;;;;;;;;;;;22.90;94.30;;;;;;5072758;28;19913;-73
2022/04/23 09:09:21;;;;;;;;;;;22.70;94.40;;;;;;5072805;28;19909;-72
2022/04/23 09:11:51;;;;;;;;;;;22.60;94.60;;;;;;5072794;28;19914;-73
2022/04/23 09:14:29;;;;;;;;;;;22.20;95.10;;;;;;5072861;28;20011;-72
2022/04/23 09:25:15;;;;;;;;;;;22.30;95.50;;;;;;5073847;28;19916;-72
2022/04/23 09:27:43;;;;;;;;;;;21.40;96.70;;;;;;5071162;28;19994;-73
2022/04/23 09:30:11;;;;;;;;;;;21.20;97.90;;;;;;5072477;28;19952;-72
2022/04/23 09:32:37;;;;;;;;;;;21.10;98.30;;;;;;5072439;28;20007;-71
2022/04/23 09:35:11;;;;;;;;;;;21.50;97.90;;;;;;5070882;28;19909;-72
2022/04/23 09:40:23;;;;;;;;;;;22.20;96.80;;;;;;5072477;28;20323;-72
2022/04/23 09:43:15;;;;;;;;;;;22.40;95.80;;;;;;5072837;28;19917;-72
2022/04/23 09:45:42;;;;;;;;;;;22.50;95.30;;;;;;5069013;28;19939;-71
2022/04/23 09:48:22;;;;;;;;;;;22.30;96.30;;;;;;5072370;28;19918;-71
2022/04/23 09:50:49;;;;;;;;;;;22.00;96.10;;;;;;5071797;28;19908;-72
2022/04/23 09:53:15;;;;;;;;;;;21.70;96.80;;;;;;5075232;28;19942;-71
2022/04/23 09:55:42;;;;;;;;;;;21.80;96.20;;;;;;5074007;28;19909;-72
2022/04/23 09:58:09;;;;;;;;;;;21.90;95.70;;;;;;5076185;28;19915;-72
2022/04/23 10:00:36;;;;;;;;;;;21.90;95.20;;;;;;5075362;28;19913;-73
2022/04/23 10:03:03;;;;;;;;;;;21.90;95.50;;;;;;5074552;28;19921;-70
2022/04/23 10:05:29;;;;;;;;;;;22.00;95.00;;;;;;5074897;28;19916;-79
2022/04/23 10:07:56;;;;;;;;;;;22.10;95.20;;;;;;5073179;28;19916;-72
2022/04/23 10:10:26;;;;;;;;;;;22.20;95.10;;;;;;5074996;28;19920;-71
2022/04/23 10:12:52;;;;;;;;;;;21.90;95.00;;;;;;5074906;28;20050;-74
2022/04/23 10:15:18;;;;;;;;;;;21.90;95.00;;;;;;5074856;28;20457;-73
2022/04/23 10:17:44;;;;;;;;;;;21.90;94.70;;;;;;5074412;28;19917;-72
2022/04/23 10:20:12;;;;;;;;;;;22.20;95.20;;;;;;5073705;28;20421;-72
2022/04/23 10:22:43;;;;;;;;;;;22.20;95.00;;;;;;5073338;28;20019;-71
2022/04/23 10:25:28;;;;;;;;;;;22.30;94.40;;;;;;5074375;28;19915;-70
2022/04/23 10:27:55;;;;;;;;;;;22.20;94.70;;;;;;5073978;28;19908;-72
2022/04/23 10:30:21;;;;;;;;;;;22.40;93.80;;;;;;5074589;28;19909;-71
2022/04/23 10:32:47;;;;;;;;;;;22.30;94.00;;;;;;5074785;28;19915;-73
2022/04/23 10:35:19;;;;;;;;;;;22.50;93.60;;;;;;5080793;28;19908;-71
2022/04/23 10:37:48;;;;;;;;;;;22.30;93.70;;;;;;5087798;28;19912;-72
2022/04/23 10:40:16;;;;;;;;;;;22.40;93.80;;;;;;5093346;28;19909;-68
2022/04/23 10:43:01;;;;;;;;;;;22.50;93.40;;;;;;5093027;28;19920;-69
2022/04/23 10:45:38;;;;;;;;;;;22.50;93.30;;;;;;5095964;28;19912;-71
2022/04/23 10:48:19;;;;;;;;;;;22.50;93.00;;;;;;5095044;28;19996;-72
2022/04/23 10:51:10;;;;;;;;;;;22.70;91.70;;;;;;5094585;28;19915;-69
2022/04/23 10:53:42;;;;;;;;;;;22.70;92.00;;;;;;5105069;28;19916;-71
2022/04/23 10:56:16;;;;;;;;;;;22.90;91.40;;;;;;5108277;28;19912;-68
2022/04/23 10:58:42;;;;;;;;;;;23.00;91.20;;;;;;5100875;28;19995;-70
2022/04/23 11:01:27;;;;;;;;;;;23.20;91.10;;;;;;5093463;28;20010;-71
2022/04/23 11:03:53;;;;;;;;;;;23.30;91.10;;;;;;5092756;28;19916;-72
2022/04/23 11:12:30;;;;;;;;;;;23.40;90.60;;;;;;5094124;28;19954;-70
2022/04/23 11:14:56;;;;;;;;;;;23.40;90.40;;;;;;5087353;28;19908;-68
2022/04/23 11:17:30;;;;;;;;;;;23.30;90.30;;;;;;5094335;28;20221;-72
2022/04/23 11:19:55;;;;;;;;;;;22.90;91.10;;;;;;5094272;28;19938;-70
2022/04/23 11:22:23;;;;;;;;;;;23.00;91.00;;;;;;5095084;28;21866;-72
2022/04/23 11:24:49;;;;;;;;;;;23.00;90.50;;;;;;5094869;28;20332;-71
2022/04/23 11:27:28;;;;;;;;;;;23.10;90.30;;;;;;5094983;28;19931;-70
2022/04/23 11:29:54;;;;;;;;;;;22.90;90.10;;;;;;5094871;28;19912;-70
2022/04/23 11:32:30;;;;;;;;;;;23.10;89.30;;;;;;5095193;28;19908;-72
2022/04/23 11:35:00;;;;;;;;;;;23.00;89.70;;;;;;5098681;28;19911;-67
2022/04/23 11:37:33;;;;;;;;;;;23.00;89.50;;;;;;5093970;28;20295;-73
2022/04/23 11:40:06;;;;;;;;;;;23.20;88.50;;;;;;5094834;28;19912;-72
2022/04/23 11:42:36;;;;;;;;;;;23.20;87.20;;;;;;5094213;28;19978;-72
2022/04/23 11:45:02;;;;;;;;;;;23.10;89.50;;;;;;5094458;28;20333;-69
2022/04/23 11:47:55;;;;;;;;;;;23.20;90.00;;;;;;5094381;28;19908;-67
2022/04/23 11:50:48;;;;;;;;;;;23.50;89.00;;;;;;5093489;28;19912;-67
2022/04/23 11:53:57;;;;;;;;;;;23.30;87.90;;;;;;5092179;28;19965;-63
2022/04/23 11:56:44;;;;;;;;;;;23.10;88.30;;;;;;5096584;28;19912;-66
2022/04/23 11:59:11;;;;;;;;;;;23.30;87.30;;;;;;5094720;28;19917;-70
2022/04/23 12:01:41;;;;;;;;;;;23.20;87.80;;;;;;5095984;28;19916;-70
2022/04/23 12:04:07;;;;;;;;;;;23.10;87.90;;;;;;5094728;28;19916;-70
2022/04/23 12:06:43;;;;;;;;;;;23.20;88.70;;;;;;5106959;28;20342;-71
2022/04/23 12:09:11;;;;;;;;;;;23.30;87.90;;;;;;5094183;28;19962;-70
2022/04/23 12:11:37;;;;;;;;;;;23.40;87.50;;;;;;5091648;28;19916;-70
2022/04/23 12:14:03;;;;;;;;;;;23.60;87.60;;;;;;5086600;28;19956;-70
2022/04/23 12:16:32;;;;;;;;;;;23.40;88.30;;;;;;5104177;28;19998;-70
2022/04/23 12:19:13;;;;;;;;;;;23.40;88.00;;;;;;5094362;28;19912;-69
2022/04/23 12:21:39;;;;;;;;;;;23.60;86.60;;;;;;5094918;28;19931;-70
2022/04/23 12:24:07;;;;;;;;;;;23.70;86.20;;;;;;5099995;28;19920;-69
2022/04/23 12:26:34;;;;;;;;;;;23.60;85.30;;;;;;5091076;28;20372;-73
2022/04/23 12:42:46;;;;;;;;;;;23.50;85.20;;;;;;5073672;28;20058;-72
2022/04/23 12:45:20;;;;;;;;;;;23.70;84.90;;;;;;5105909;28;21242;-73
2022/04/23 12:47:46;;;;;;;;;;;23.70;85.00;;;;;;5074173;28;19908;-72
2022/04/23 12:50:24;;;;;;;;;;;23.60;84.90;;;;;;5073658;28;19916;-71
2022/04/23 12:52:50;;;;;;;;;;;23.40;85.00;;;;;;5073781;28;19916;-72
2022/04/23 12:55:17;;;;;;;;;;;23.50;85.60;;;;;;5072288;28;19912;-72
2022/04/23 12:58:04;;;;;;;;;;;23.80;84.10;;;;;;5076474;28;19961;-72
2022/04/23 13:00:31;;;;;;;;;;;23.80;83.80;;;;;;5094287;28;20007;-73
2022/04/23 13:03:00;;;;;;;;;;;23.90;83.70;;;;;;5093890;28;19916;-71
2022/04/23 13:05:26;;;;;;;;;;;23.60;84.00;;;;;;5094212;28;19919;-73
2022/04/23 13:10:37;;;;;;;;;;;23.50;83.60;;;;;;5093859;28;19934;-72
2022/04/23 13:13:03;;;;;;;;;;;23.30;83.40;;;;;;5093889;28;19912;-71
2022/04/23 13:15:30;;;;;;;;;;;23.40;84.70;;;;;;5075416;28;19999;-72
2022/04/23 13:17:55;;;;;;;;;;;23.30;85.20;;;;;;5074184;28;19916;-73
2022/04/23 13:20:21;;;;;;;;;;;23.40;85.30;;;;;;5073776;28;19942;-73
2022/04/23 13:22:47;;;;;;;;;;;23.60;83.10;;;;;;5072218;28;19912;-73
2022/04/23 13:25:15;;;;;;;;;;;23.50;83.00;;;;;;5073503;28;19919;-71
2022/04/23 13:27:41;;;;;;;;;;;23.40;83.90;;;;;;5074573;28;19909;-72
2022/04/23 13:30:07;;;;;;;;;;;23.50;84.90;;;;;;5078138;28;19962;-71
2022/04/23 13:32:35;;;;;;;;;;;23.50;84.70;;;;;;5077548;28;19919;-72
2022/04/23 13:35:02;;;;;;;;;;;23.40;86.70;;;;;;5077389;28;20379;-72
2022/04/23 13:37:28;;;;;;;;;;;23.50;85.40;;;;;;5078018;28;19908;-70
2022/04/23 13:39:54;;;;;;;;;;;23.40;84.50;;;;;;5077601;28;19970;-72
2022/04/23 13:42:22;;;;;;;;;;;23.50;83.60;;;;;;5077013;28;19920;-72
2022/04/23 13:44:48;;;;;;;;;;;23.40;83.90;;;;;;5077339;28;19970;-70
2022/04/23 13:47:14;;;;;;;;;;;23.50;83.90;;;;;;5076603;28;20019;-71
2022/04/23 13:49:40;;;;;;;;;;;23.50;84.20;;;;;;5075797;28;19916;-71
2022/04/23 13:52:05;;;;;;;;;;;23.30;85.60;;;;;;5076246;28;19909;-70
2022/04/23 13:54:32;;;;;;;;;;;23.40;85.90;;;;;;5076092;28;19908;-69
2022/04/23 13:57:00;;;;;;;;;;;23.50;86.70;;;;;;5075874;28;19980;-71
2022/04/23 13:59:27;;;;;;;;;;;23.50;86.50;;;;;;5075747;28;19962;-70
2022/04/23 14:10:07;;;;;;;;;;;23.50;85.60;;;;;;5076305;28;19915;-70
2022/04/23 14:12:33;;;;;;;;;;;23.50;85.70;;;;;;5075660;28;19935;-70
2022/04/23 14:14:59;;;;;;;;;;;23.40;84.70;;;;;;5080323;28;19959;-69
2022/04/23 14:17:24;;;;;;;;;;;23.30;84.60;;;;;;5094123;28;20291;-71
2022/04/23 14:19:50;;;;;;;;;;;23.40;84.00;;;;;;5095796;28;19991;-71
2022/04/23 14:22:16;;;;;;;;;;;23.30;83.10;;;;;;5095654;28;20322;-69
2022/04/23 14:24:42;;;;;;;;;;;23.40;82.30;;;;;;5095674;28;19999;-71
2022/04/23 14:27:08;;;;;;;;;;;23.50;82.80;;;;;;5087540;28;19908;-69
2022/04/23 14:29:33;;;;;;;;;;;23.50;82.00;;;;;;5095503;28;19931;-69
2022/04/23 14:32:01;;;;;;;;;;;23.30;81.50;;;;;;5095577;28;20253;-70
2022/04/23 14:34:27;;;;;;;;;;;23.30;82.40;;;;;;5095503;28;19991;-69
2022/04/23 14:36:52;;;;;;;;;;;23.30;83.30;;;;;;5095236;28;20366;-70
2022/04/23 14:39:18;;;;;;;;;;;23.30;83.60;;;;;;5093864;28;19988;-70
2022/04/23 14:41:44;;;;;;;;;;;23.20;83.20;;;;;;5095056;28;20014;-68
2022/04/23 14:44:10;;;;;;;;;;;23.20;84.60;;;;;;5095660;28;19979;-70
2022/04/23 14:46:36;;;;;;;;;;;22.90;84.10;;;;;;5094999;28;19908;-70
2022/04/23 14:49:02;;;;;;;;;;;22.70;83.70;;;;;;5094656;28;19970;-70
2022/04/23 14:54:12;;;;;;;;;;;22.80;82.70;;;;;;5074344;28;19915;-69
2022/04/23 14:56:38;;;;;;;;;;;22.60;84.00;;;;;;5074078;28;19909;-69
2022/04/23 14:59:04;;;;;;;;;;;22.50;82.90;;;;;;5073588;28;19908;-68
2022/04/23 15:01:30;;;;;;;;;;;22.60;83.50;;;;;;5073442;28;19932;-69
2022/04/23 15:03:59;;;;;;;;;;;22.70;83.70;;;;;;5074009;28;19916;-69
2022/04/23 15:06:26;;;;;;;;;;;22.80;83.90;;;;;;5074107;28;19951;-69
2022/04/23 15:08:51;;;;;;;;;;;22.90;84.10;;;;;;5073694;28;19954;-70
2022/04/23 15:11:17;;;;;;;;;;;22.70;83.60;;;;;;5073462;28;20008;-70
2022/04/23 15:13:43;;;;;;;;;;;22.50;83.20;;;;;;5072086;28;19912;-68
2022/04/23 15:16:10;;;;;;;;;;;22.40;82.50;;;;;;5084734;28;19975;-67
2022/04/23 15:18:36;;;;;;;;;;;22.20;83.90;;;;;;5094419;28;19912;-69